createdAt,value
2023-04-08T00:03:22.210Z,0
2023-04-08T00:06:48.476Z,0
2023-04-08T00:10:14.924Z,0
2023-04-08T00:13:41.433Z,0
2023-04-08T00:17:07.900Z,0
2023-04-08T00:20:34.340Z,0
2023-04-08T00:24:00.912Z,0
2023-04-08T00:27:27.477Z,0
2023-04-08T00:30:53.967Z,0
2023-04-08T00:34:20.420Z,0
2023-04-08T00:37:46.928Z,0
2023-04-08T00:41:13.452Z,0
2023-04-08T00:44:39.905Z,0
2023-04-08T00:48:06.456Z,0
2023-04-08T00:51:32.901Z,0
2023-04-08T00:54:59.135Z,0
2023-04-08T00:58:25.488Z,0
2023-04-08T01:01:51.798Z,0
2023-04-08T01:05:17.688Z,0
2023-04-08T01:08:43.708Z,0
2023-04-08T01:12:09.709Z,0
2023-04-08T01:15:35.716Z,0
2023-04-08T01:19:01.606Z,0
2023-04-08T01:22:27.503Z,0
2023-04-08T01:25:53.434Z,0
2023-04-08T01:29:19.194Z,0
2023-04-08T01:32:45.035Z,0
2023-04-08T01:36:10.747Z,0
2023-04-08T01:39:36.566Z,0
2023-04-08T01:43:02.352Z,0
2023-04-08T01:46:28.134Z,0
2023-04-08T01:49:53.907Z,0
2023-04-08T01:53:19.629Z,0
2023-04-08T01:56:45.385Z,0
2023-04-08T02:00:11.204Z,0
2023-04-08T02:03:37.112Z,0
2023-04-08T02:07:02.780Z,0
2023-04-08T02:10:28.496Z,0
2023-04-08T02:13:54.268Z,0
2023-04-08T02:17:20.016Z,0
2023-04-08T02:20:45.686Z,0
2023-04-08T02:24:11.458Z,0
2023-04-08T02:27:37.203Z,0
2023-04-08T02:31:02.958Z,0
2023-04-08T02:34:28.691Z,0
2023-04-08T02:37:54.324Z,0
2023-04-08T02:41:20.031Z,0
2023-04-08T02:44:45.719Z,0
2023-04-08T02:48:11.341Z,0
2023-04-08T02:51:37.120Z,0
2023-04-08T02:55:02.782Z,0
2023-04-08T02:58:28.427Z,0
2023-04-08T03:01:54.106Z,0
2023-04-08T03:05:19.684Z,0
2023-04-08T03:08:45.354Z,0
2023-04-08T03:12:10.974Z,0
2023-04-08T03:15:36.664Z,0
2023-04-08T03:19:02.269Z,0
2023-04-08T03:22:27.863Z,0
2023-04-08T03:25:53.543Z,0
2023-04-08T03:29:19.124Z,0
2023-04-08T03:32:44.693Z,0
2023-04-08T03:36:10.208Z,0
2023-04-08T03:39:35.733Z,0
2023-04-08T03:43:01.319Z,0
2023-04-08T03:46:26.905Z,0
2023-04-08T03:49:52.411Z,0
2023-04-08T03:53:17.936Z,0
2023-04-08T03:56:43.450Z,0
2023-04-08T04:00:09.019Z,0
2023-04-08T04:03:34.623Z,0
2023-04-08T04:07:00.129Z,0
2023-04-08T04:10:25.778Z,0
2023-04-08T04:13:51.520Z,0
2023-04-08T04:17:17.137Z,1
2023-04-08T04:20:42.737Z,1
2023-04-08T04:24:08.347Z,0
2023-04-08T04:27:33.970Z,0
2023-04-08T04:30:59.582Z,1
2023-04-08T04:34:25.132Z,2
2023-04-08T04:37:50.638Z,2
2023-04-08T04:41:16.186Z,3
2023-04-08T04:44:41.718Z,6
2023-04-08T04:48:07.273Z,8
2023-04-08T04:51:32.782Z,11
2023-04-08T04:54:58.243Z,13
2023-04-08T04:58:23.767Z,19
2023-04-08T05:01:49.338Z,27
2023-04-08T05:05:14.872Z,25
2023-04-08T05:08:40.227Z,28
2023-04-08T05:12:05.818Z,25
2023-04-08T05:15:31.352Z,24
2023-04-08T05:18:56.950Z,20
2023-04-08T05:22:22.476Z,19
2023-04-08T05:25:48.097Z,25
2023-04-08T05:29:13.634Z,25
2023-04-08T05:32:39.265Z,25
2023-04-08T05:36:04.886Z,26
2023-04-08T05:39:30.467Z,30
2023-04-08T05:42:56.046Z,37
2023-04-08T05:46:21.730Z,39
2023-04-08T05:49:47.267Z,47
2023-04-08T05:53:12.853Z,58
2023-04-08T05:56:38.413Z,51
2023-04-08T06:00:04.061Z,48
2023-04-08T06:03:29.793Z,59
2023-04-08T06:06:55.310Z,69
2023-04-08T06:10:20.964Z,68
2023-04-08T06:13:46.504Z,59
2023-04-08T06:17:12.049Z,54
2023-04-08T06:20:37.536Z,48
2023-04-08T06:24:03.095Z,56
2023-04-08T06:27:28.645Z,66
2023-04-08T06:30:53.933Z,56
2023-04-08T06:34:19.380Z,69
2023-04-08T06:37:44.795Z,69
2023-04-08T06:41:10.425Z,84
2023-04-08T06:44:36.023Z,76
2023-04-08T06:48:01.693Z,82
2023-04-08T06:51:27.239Z,91
2023-04-08T06:54:52.834Z,207
2023-04-08T06:58:18.461Z,112
2023-04-08T07:01:43.993Z,108
2023-04-08T07:05:10.912Z,133
2023-04-08T07:08:36.579Z,130
2023-04-08T07:12:01.948Z,92
2023-04-08T07:15:27.410Z,93
2023-04-08T07:18:52.991Z,99
2023-04-08T07:22:18.354Z,98
2023-04-08T07:25:43.955Z,98
2023-04-08T07:29:09.501Z,102
2023-04-08T07:32:35.040Z,104
2023-04-08T07:36:00.327Z,93
2023-04-08T07:39:25.772Z,135
2023-04-08T07:42:51.195Z,146
2023-04-08T07:46:16.884Z,187
2023-04-08T07:49:42.396Z,151
2023-04-08T07:53:08.231Z,135
2023-04-08T07:56:33.242Z,193
2023-04-08T07:59:58.641Z,165
2023-04-08T08:03:24.345Z,148
2023-04-08T08:06:49.630Z,169
2023-04-08T08:10:14.995Z,129
2023-04-08T08:13:40.350Z,150
2023-04-08T08:17:05.734Z,134
2023-04-08T08:20:31.051Z,112
2023-04-08T08:23:56.399Z,126
2023-04-08T08:27:21.682Z,125
2023-04-08T08:30:47.036Z,125
2023-04-08T08:34:12.368Z,121
2023-04-08T08:37:37.718Z,107
2023-04-08T08:41:03.059Z,136
2023-04-08T08:44:28.387Z,142
2023-04-08T08:47:53.671Z,155
2023-04-08T08:51:19.016Z,148
2023-04-08T08:54:44.325Z,163
2023-04-08T08:58:09.654Z,177
2023-04-08T09:01:35.130Z,184
2023-04-08T09:05:00.587Z,184
2023-04-08T09:08:25.494Z,143
2023-04-08T09:11:50.745Z,121
2023-04-08T09:15:16.014Z,148
2023-04-08T09:18:41.290Z,150
2023-04-08T09:22:06.642Z,174
2023-04-08T09:25:32.147Z,152
2023-04-08T09:28:57.400Z,193
2023-04-08T09:32:22.725Z,232
2023-04-08T09:35:48.092Z,236
2023-04-08T09:39:13.391Z,241
2023-04-08T09:42:38.721Z,231
2023-04-08T09:46:04.062Z,240
2023-04-08T09:49:29.376Z,168
2023-04-08T09:52:54.710Z,148
2023-04-08T09:56:20.102Z,165
2023-04-08T09:59:45.517Z,227
2023-04-08T10:03:11.125Z,168
2023-04-08T10:06:36.216Z,137
2023-04-08T10:10:01.552Z,225
2023-04-08T10:13:27.044Z,259
2023-04-08T10:16:52.518Z,182
2023-04-08T10:20:17.873Z,160
2023-04-08T10:23:43.268Z,214
2023-04-08T10:27:08.605Z,134
2023-04-08T10:30:33.991Z,205
2023-04-08T10:33:59.363Z,208
2023-04-08T10:37:24.720Z,185
2023-04-08T10:40:50.080Z,153
2023-04-08T10:44:15.469Z,174
2023-04-08T10:47:40.946Z,199
2023-04-08T10:51:06.381Z,174
2023-04-08T10:54:31.777Z,133
2023-04-08T10:57:58.323Z,120
2023-04-08T11:01:22.727Z,107
2023-04-08T11:04:48.151Z,112
2023-04-08T11:08:13.616Z,110
2023-04-08T11:11:39.057Z,98
2023-04-08T11:15:04.929Z,99
2023-04-08T11:18:30.336Z,112
2023-04-08T11:21:55.824Z,126
2023-04-08T11:25:21.361Z,136
2023-04-08T11:28:46.771Z,125
2023-04-08T11:32:12.209Z,123
2023-04-08T11:35:37.780Z,161
2023-04-08T11:39:03.211Z,201
2023-04-08T11:42:28.784Z,214
2023-04-08T11:45:54.268Z,241
2023-04-08T11:49:19.808Z,109
2023-04-08T11:52:45.316Z,130
2023-04-08T11:56:10.873Z,228
2023-04-08T11:59:36.479Z,347
2023-04-08T12:03:02.051Z,308
2023-04-08T12:06:27.458Z,311
2023-04-08T12:09:52.852Z,181
2023-04-08T12:13:18.378Z,213
2023-04-08T12:16:43.832Z,208
2023-04-08T12:20:09.801Z,160
2023-04-08T12:23:35.160Z,117
2023-04-08T12:27:00.443Z,89
2023-04-08T12:30:25.748Z,95
2023-04-08T12:33:51.316Z,93
2023-04-08T12:37:16.376Z,107
2023-04-08T12:40:41.710Z,138
2023-04-08T12:44:07.054Z,118
2023-04-08T12:47:32.450Z,118
2023-04-08T12:50:57.805Z,77
2023-04-08T12:54:23.127Z,68
2023-04-08T12:57:48.417Z,67
2023-04-08T13:01:13.728Z,54
2023-04-08T13:04:39.041Z,70
2023-04-08T13:08:04.401Z,64
2023-04-08T13:11:29.716Z,101
2023-04-08T13:14:55.053Z,218
2023-04-08T13:18:20.470Z,166
2023-04-08T13:21:46.311Z,242
2023-04-08T13:25:11.293Z,325
2023-04-08T13:28:43.824Z,296
2023-04-08T13:32:02.134Z,229
2023-04-08T13:35:27.519Z,126
2023-04-08T13:38:53.001Z,69
2023-04-08T13:42:18.391Z,49
2023-04-08T13:45:43.832Z,45
2023-04-08T13:49:09.135Z,42
2023-04-08T13:52:34.566Z,103
2023-04-08T13:55:59.898Z,190
2023-04-08T13:59:25.358Z,143
2023-04-08T14:02:50.731Z,101
2023-04-08T14:06:16.025Z,54
2023-04-08T14:09:41.402Z,116
2023-04-08T14:13:06.917Z,136
2023-04-08T14:16:32.331Z,130
2023-04-08T14:19:57.718Z,127
2023-04-08T14:23:23.134Z,145
2023-04-08T14:26:48.559Z,137
2023-04-08T14:30:13.958Z,200
2023-04-08T14:33:39.425Z,183
2023-04-08T14:37:04.889Z,81
2023-04-08T14:40:30.473Z,57
2023-04-08T14:43:56.079Z,59
2023-04-08T14:47:21.724Z,91
2023-04-08T14:50:47.316Z,51
2023-04-08T14:54:12.903Z,126
2023-04-08T14:57:38.535Z,194
2023-04-08T15:01:04.353Z,175
2023-04-08T15:04:29.824Z,178
2023-04-08T15:40:31.687Z,76
2023-04-08T15:43:57.008Z,105
2023-04-08T15:47:22.353Z,89
2023-04-08T15:50:47.676Z,88
2023-04-08T15:54:12.975Z,86
2023-04-08T15:57:38.254Z,89
2023-04-08T16:01:03.492Z,90
2023-04-08T16:04:28.910Z,83
2023-04-08T16:07:54.161Z,82
2023-04-08T16:11:19.636Z,73
2023-04-08T16:14:44.970Z,76
2023-04-08T16:18:10.324Z,76
2023-04-08T16:21:35.610Z,68
2023-04-08T16:25:01.000Z,67
2023-04-08T16:28:26.171Z,61
2023-04-08T16:31:52.339Z,52
2023-04-08T16:35:16.764Z,38
2023-04-08T16:38:42.048Z,36
2023-04-08T16:42:07.326Z,39
2023-04-08T16:45:32.717Z,39
2023-04-08T16:48:57.979Z,33
2023-04-08T16:52:23.277Z,29
2023-04-08T16:55:48.656Z,23
2023-04-08T16:59:19.620Z,21
2023-04-08T17:02:48.095Z,16
2023-04-08T17:06:14.851Z,18
2023-04-08T17:09:41.635Z,21
2023-04-08T17:13:08.517Z,25
2023-04-08T17:16:34.891Z,25
2023-04-08T17:20:00.718Z,18
2023-04-08T17:23:26.153Z,13
2023-04-08T17:26:51.530Z,9
2023-04-08T17:30:16.910Z,8
2023-04-08T17:33:42.347Z,6
2023-04-08T17:37:07.848Z,5
2023-04-08T17:40:33.280Z,4
2023-04-08T17:43:58.647Z,2
2023-04-08T17:47:24.146Z,2
2023-04-08T17:50:49.621Z,2
2023-04-08T17:54:15.065Z,0
2023-04-08T17:57:40.525Z,0
2023-04-08T18:01:06.670Z,0
2023-04-08T18:04:32.744Z,1
2023-04-08T18:07:59.154Z,0
2023-04-08T18:11:35.578Z,1
2023-04-08T18:15:00.949Z,0
2023-04-08T18:18:26.228Z,0
2023-04-08T18:21:51.504Z,0
2023-04-08T18:25:16.753Z,0
2023-04-08T18:28:41.998Z,0
2023-04-08T18:32:07.281Z,0
2023-04-08T18:35:32.528Z,0
2023-04-08T18:38:57.819Z,0
2023-04-08T18:42:23.015Z,0
2023-04-08T18:45:48.308Z,0
2023-04-08T18:49:14.023Z,0
2023-04-08T18:52:39.723Z,0
2023-04-08T18:56:04.882Z,0
2023-04-08T18:59:30.159Z,0
2023-04-08T19:02:55.340Z,0
2023-04-08T19:06:20.528Z,0
2023-04-08T19:09:45.706Z,0
2023-04-08T19:13:10.953Z,0
2023-04-08T19:16:36.166Z,0
2023-04-08T19:20:01.391Z,0
2023-04-08T19:23:26.678Z,0
2023-04-08T19:26:51.865Z,0
2023-04-08T19:30:17.115Z,0
2023-04-08T19:33:42.346Z,0
2023-04-08T19:37:07.591Z,0
2023-04-08T19:40:32.859Z,0
2023-04-08T19:43:58.055Z,0
2023-04-08T19:47:23.285Z,0
2023-04-08T19:50:49.499Z,0
2023-04-08T19:54:13.692Z,0
2023-04-08T19:57:38.986Z,0
2023-04-08T20:01:04.109Z,0
2023-04-08T20:04:29.504Z,0
2023-04-08T20:07:54.832Z,0
2023-04-08T20:11:20.109Z,0
2023-04-08T20:14:45.489Z,0
2023-04-08T20:18:10.807Z,0
2023-04-08T20:21:36.143Z,0
2023-04-08T20:25:01.441Z,0
2023-04-08T20:28:26.758Z,0
2023-04-08T20:31:52.160Z,0
2023-04-08T20:35:17.328Z,0
2023-04-08T20:38:42.778Z,0
2023-04-08T20:42:07.879Z,0
2023-04-08T20:45:33.144Z,0
2023-04-08T20:48:58.570Z,0
2023-04-08T20:52:23.698Z,0
2023-04-08T20:55:48.944Z,0
2023-04-08T20:59:14.191Z,0
2023-04-08T21:02:39.643Z,0
2023-04-08T21:06:04.744Z,0
2023-04-08T21:09:29.991Z,0
2023-04-08T21:12:55.326Z,0
2023-04-08T21:16:20.625Z,0
2023-04-08T21:19:45.846Z,0
2023-04-08T21:23:11.104Z,0
2023-04-08T21:26:36.340Z,0
2023-04-08T21:30:01.572Z,0
2023-04-08T21:33:26.841Z,0
2023-04-08T21:36:52.168Z,0
2023-04-08T21:40:17.461Z,0
2023-04-08T21:43:42.641Z,0
2023-04-08T21:47:07.893Z,0
2023-04-08T21:50:33.150Z,0
2023-04-08T21:53:58.426Z,0
2023-04-08T21:57:23.705Z,0
2023-04-08T22:00:49.000Z,0
2023-04-08T22:04:14.391Z,0
2023-04-08T22:07:39.548Z,0
2023-04-08T22:11:04.759Z,0
2023-04-08T22:14:30.092Z,0
2023-04-08T22:17:55.339Z,0
2023-04-08T22:21:20.573Z,0
2023-04-08T22:24:45.828Z,0
2023-04-08T22:28:11.083Z,0
2023-04-08T22:31:36.360Z,0
2023-04-08T22:35:01.598Z,0
2023-04-08T22:38:26.790Z,0
2023-04-08T22:41:52.034Z,0
2023-04-08T22:45:17.295Z,0
2023-04-08T22:48:42.667Z,0
2023-04-08T22:52:07.806Z,0
2023-04-08T22:55:33.031Z,0
2023-04-08T22:58:58.284Z,0
2023-04-08T23:02:23.618Z,0
2023-04-08T23:05:48.843Z,0
2023-04-08T23:09:14.076Z,0
2023-04-08T23:12:39.367Z,0
2023-04-08T23:16:04.661Z,0
2023-04-08T23:19:29.828Z,0
2023-04-08T23:22:55.098Z,0
2023-04-08T23:26:20.321Z,0
2023-04-08T23:29:45.561Z,0
2023-04-08T23:33:10.813Z,0
2023-04-08T23:36:36.039Z,0
2023-04-08T23:40:01.295Z,0
2023-04-08T23:43:26.548Z,0
2023-04-08T23:46:51.774Z,0
2023-04-08T23:50:16.984Z,0
2023-04-08T23:53:42.244Z,0
2023-04-08T23:57:07.522Z,0
